sensor_id;sensor_type;location;lat;lon;timestamp;pressure;altitude;pressure_sealevel;temperature;humidity
42633;BME280;28261;53.304;-6.284;2023-01-28T00:00:51;102788.25;;;3.79;86.15
42633;BME280;28261;53.304;-6.284;2023-01-28T00:02:55;102791.75;;;3.78;86.19
42633;BME280;28261;53.304;-6.284;2023-01-28T00:04:59;102789.13;;;3.77;86.08
42633;BME280;28261;53.304;-6.284;2023-01-28T00:07:03;102796.13;;;3.78;86.30
42633;BME280;28261;53.304;-6.284;2023-01-28T00:09:07;102790.00;;;3.79;86.64
42633;BME280;28261;53.304;-6.284;2023-01-28T00:11:12;102802.22;;;3.83;86.54
42633;BME280;28261;53.304;-6.284;2023-01-28T00:13:16;102804.84;;;3.86;86.32
42633;BME280;28261;53.304;-6.284;2023-01-28T00:15:21;102798.69;;;3.88;86.21
42633;BME280;28261;53.304;-6.284;2023-01-28T00:17:27;102796.91;;;3.94;86.05
42633;BME280;28261;53.304;-6.284;2023-01-28T00:19:31;102787.25;;;3.97;86.05
42633;BME280;28261;53.304;-6.284;2023-01-28T00:21:34;102790.75;;;4.02;85.88
42633;BME280;28261;53.304;-6.284;2023-01-28T00:23:45;102788.09;;;4.05;85.82
42633;BME280;28261;53.304;-6.284;2023-01-28T00:25:50;102774.06;;;4.08;85.51
42633;BME280;28261;53.304;-6.284;2023-01-28T00:27:56;102781.06;;;4.09;85.53
42633;BME280;28261;53.304;-6.284;2023-01-28T00:30:01;102779.28;;;4.11;85.45
42633;BME280;28261;53.304;-6.284;2023-01-28T00:32:07;102774.03;;;4.11;85.65
42633;BME280;28261;53.304;-6.284;2023-01-28T00:34:11;102769.69;;;4.12;85.51
42633;BME280;28261;53.304;-6.284;2023-01-28T00:36:16;102774.94;;;4.12;85.44
42633;BME280;28261;53.304;-6.284;2023-01-28T00:38:20;102781.94;;;4.10;85.38
42633;BME280;28261;53.304;-6.284;2023-01-28T00:40:23;102777.56;;;4.07;85.43
42633;BME280;28261;53.304;-6.284;2023-01-28T00:42:27;102788.97;;;4.07;85.46
42633;BME280;28261;53.304;-6.284;2023-01-28T00:44:31;102794.22;;;4.06;85.41
42633;BME280;28261;53.304;-6.284;2023-01-28T00:46:37;102796.84;;;4.07;85.64
42633;BME280;28261;53.304;-6.284;2023-01-28T00:48:44;102790.69;;;4.09;85.91
42633;BME280;28261;53.304;-6.284;2023-01-28T00:50:48;102797.66;;;4.13;85.50
42633;BME280;28261;53.304;-6.284;2023-01-28T00:52:52;102792.41;;;4.16;85.60
42633;BME280;28261;53.304;-6.284;2023-01-28T00:54:58;102795.00;;;4.19;85.20
42633;BME280;28261;53.304;-6.284;2023-01-28T00:57:02;102786.25;;;4.21;85.29
42633;BME280;28261;53.304;-6.284;2023-01-28T00:59:05;102775.72;;;4.23;85.00
42633;BME280;28261;53.304;-6.284;2023-01-28T01:01:12;102763.44;;;4.23;85.39
42633;BME280;28261;53.304;-6.284;2023-01-28T01:03:17;102752.09;;;4.23;85.62
42633;BME280;28261;53.304;-6.284;2023-01-28T01:05:22;102756.47;;;4.22;85.36
42633;BME280;28261;53.304;-6.284;2023-01-28T01:07:28;102760.00;;;4.21;85.51
42633;BME280;28261;53.304;-6.284;2023-01-28T01:09:36;102757.38;;;4.18;85.62
42633;BME280;28261;53.304;-6.284;2023-01-28T01:11:39;102756.53;;;4.15;85.79
42633;BME280;28261;53.304;-6.284;2023-01-28T01:13:43;102746.03;;;4.15;85.63
42633;BME280;28261;53.304;-6.284;2023-01-28T01:15:47;102743.41;;;4.15;86.35
42633;BME280;28261;53.304;-6.284;2023-01-28T01:17:51;102742.53;;;4.13;86.36
42633;BME280;28261;53.304;-6.284;2023-01-28T01:19:55;102740.81;;;4.12;86.08
42633;BME280;28261;53.304;-6.284;2023-01-28T01:22:01;102732.03;;;4.11;86.39
42633;BME280;28261;53.304;-6.284;2023-01-28T01:24:05;102729.44;;;4.10;86.37
42633;BME280;28261;53.304;-6.284;2023-01-28T01:26:09;102732.97;;;4.10;86.60
42633;BME280;28261;53.304;-6.284;2023-01-28T01:28:14;102735.56;;;4.09;86.56
42633;BME280;28261;53.304;-6.284;2023-01-28T01:30:18;102734.72;;;4.06;86.56
42633;BME280;28261;53.304;-6.284;2023-01-28T01:32:22;102733.84;;;4.07;87.03
42633;BME280;28261;53.304;-6.284;2023-01-28T01:34:26;102725.97;;;4.09;86.83
42633;BME280;28261;53.304;-6.284;2023-01-28T01:36:30;102731.19;;;4.11;86.85
42633;BME280;28261;53.304;-6.284;2023-01-28T01:38:35;102732.94;;;4.12;87.28
42633;BME280;28261;53.304;-6.284;2023-01-28T01:40:38;102730.31;;;4.13;87.17
42633;BME280;28261;53.304;-6.284;2023-01-28T01:42:42;102734.66;;;4.16;87.14
42633;BME280;28261;53.304;-6.284;2023-01-28T01:44:52;102732.88;;;4.18;87.63
42633;BME280;28261;53.304;-6.284;2023-01-28T01:46:57;102730.25;;;4.18;87.56
42633;BME280;28261;53.304;-6.284;2023-01-28T01:49:06;102731.13;;;4.17;87.56
42633;BME280;28261;53.304;-6.284;2023-01-28T01:51:14;102736.38;;;4.17;88.12
42633;BME280;28261;53.304;-6.284;2023-01-28T01:53:21;102739.00;;;4.17;88.39
42633;BME280;28261;53.304;-6.284;2023-01-28T01:55:29;102733.75;;;4.17;89.22
42633;BME280;28261;53.304;-6.284;2023-01-28T01:57:35;102737.25;;;4.19;89.56
42633;BME280;28261;53.304;-6.284;2023-01-28T01:59:40;102732.00;;;4.17;89.73
42633;BME280;28261;53.304;-6.284;2023-01-28T02:01:44;102731.13;;;4.18;90.19
42633;BME280;28261;53.304;-6.284;2023-01-28T02:03:54;102733.75;;;4.18;90.34
42633;BME280;28261;53.304;-6.284;2023-01-28T02:05:59;102736.38;;;4.18;90.59
42633;BME280;28261;53.304;-6.284;2023-01-28T02:08:04;102736.38;;;4.15;91.03
42633;BME280;28261;53.304;-6.284;2023-01-28T02:10:22;102740.78;;;4.13;92.07
42633;BME280;28261;53.304;-6.284;2023-01-28T02:12:32;102750.41;;;4.11;92.33
42633;BME280;28261;53.304;-6.284;2023-01-28T02:14:40;102756.56;;;4.10;92.74
42633;BME280;28261;53.304;-6.284;2023-01-28T02:16:44;102755.69;;;4.10;93.01
42633;BME280;28261;53.304;-6.284;2023-01-28T02:18:48;102760.06;;;4.09;93.17
42633;BME280;28261;53.304;-6.284;2023-01-28T02:21:09;102760.94;;;4.10;93.61
42633;BME280;28261;53.304;-6.284;2023-01-28T02:23:33;102759.19;;;4.09;93.87
42633;BME280;28261;53.304;-6.284;2023-01-28T02:25:57;102759.19;;;4.09;94.13
42633;BME280;28261;53.304;-6.284;2023-01-28T02:28:20;102756.56;;;4.09;94.30
42633;BME280;28261;53.304;-6.284;2023-01-28T02:30:30;102759.19;;;4.09;94.81
42633;BME280;28261;53.304;-6.284;2023-01-28T02:32:41;102757.44;;;4.09;94.75
42633;BME280;28261;53.304;-6.284;2023-01-28T02:34:49;102760.06;;;4.09;94.81
42633;BME280;28261;53.304;-6.284;2023-01-28T02:36:57;102773.19;;;4.11;95.17
42633;BME280;28261;53.304;-6.284;2023-01-28T02:39:08;102774.94;;;4.12;95.25
42633;BME280;28261;53.304;-6.284;2023-01-28T02:41:21;102786.28;;;4.14;95.28
42633;BME280;28261;53.304;-6.284;2023-01-28T02:43:32;102775.75;;;4.15;95.91
42633;BME280;28261;53.304;-6.284;2023-01-28T02:45:36;102773.13;;;4.17;95.67
42633;BME280;28261;53.304;-6.284;2023-01-28T02:47:53;102783.63;;;4.17;95.89
42633;BME280;28261;53.304;-6.284;2023-01-28T02:50:02;102774.00;;;4.17;96.28
42633;BME280;28261;53.304;-6.284;2023-01-28T02:52:29;102767.88;;;4.17;96.05
42633;BME280;28261;53.304;-6.284;2023-01-28T02:54:58;102762.63;;;4.17;96.02
42633;BME280;28261;53.304;-6.284;2023-01-28T02:57:15;102750.41;;;4.16;96.31
42633;BME280;28261;53.304;-6.284;2023-01-28T02:59:26;102746.03;;;4.15;96.41
42633;BME280;28261;53.304;-6.284;2023-01-28T03:01:41;102748.66;;;4.15;96.20
42633;BME280;28261;53.304;-6.284;2023-01-28T03:03:55;102745.16;;;4.13;96.56
42633;BME280;28261;53.304;-6.284;2023-01-28T03:06:04;102735.56;;;4.12;96.39
42633;BME280;28261;53.304;-6.284;2023-01-28T03:08:09;102732.03;;;4.11;96.86
42633;BME280;28261;53.304;-6.284;2023-01-28T03:10:28;102732.94;;;4.09;96.84
42633;BME280;28261;53.304;-6.284;2023-01-28T03:12:32;102738.19;;;4.09;96.78
42633;BME280;28261;53.304;-6.284;2023-01-28T03:14:59;102734.72;;;4.08;97.29
42633;BME280;28261;53.304;-6.284;2023-01-28T03:17:27;102715.47;;;4.07;97.45
42633;BME280;28261;53.304;-6.284;2023-01-28T03:19:52;102708.47;;;4.06;97.90
42633;BME280;28261;53.304;-6.284;2023-01-28T03:22:14;102700.63;;;4.05;98.71
42633;BME280;28261;53.304;-6.284;2023-01-28T03:24:40;102704.97;;;4.04;98.99
42633;BME280;28261;53.304;-6.284;2023-01-28T03:27:07;102699.72;;;4.04;99.22
42633;BME280;28261;53.304;-6.284;2023-01-28T03:29:36;102694.50;;;4.03;99.80
42633;BME280;28261;53.304;-6.284;2023-01-28T03:32:01;102699.75;;;4.01;100.00
42633;BME280;28261;53.304;-6.284;2023-01-28T03:34:22;102710.28;;;4.00;100.00
42633;BME280;28261;53.304;-6.284;2023-01-28T03:36:45;102720.78;;;3.98;100.00
42633;BME280;28261;53.304;-6.284;2023-01-28T03:39:11;102728.69;;;3.97;100.00
42633;BME280;28261;53.304;-6.284;2023-01-28T03:41:19;102730.41;;;3.96;100.00
42633;BME280;28261;53.304;-6.284;2023-01-28T03:43:23;102740.03;;;3.97;100.00
42633;BME280;28261;53.304;-6.284;2023-01-28T03:45:27;102747.03;;;3.98;100.00
42633;BME280;28261;53.304;-6.284;2023-01-28T03:47:31;102734.75;;;4.00;100.00
42633;BME280;28261;53.304;-6.284;2023-01-28T03:49:38;102727.75;;;4.02;100.00
42633;BME280;28261;53.304;-6.284;2023-01-28T03:51:42;102720.75;;;4.03;100.00
42633;BME280;28261;53.304;-6.284;2023-01-28T03:53:47;102714.59;;;4.05;100.00
42633;BME280;28261;53.304;-6.284;2023-01-28T03:55:51;102711.97;;;4.07;100.00
42633;BME280;28261;53.304;-6.284;2023-01-28T03:57:54;102713.69;;;4.10;100.00
42633;BME280;28261;53.304;-6.284;2023-01-28T03:59:58;102723.31;;;4.12;100.00
42633;BME280;28261;53.304;-6.284;2023-01-28T04:02:02;102726.78;;;4.13;100.00
42633;BME280;28261;53.304;-6.284;2023-01-28T04:04:08;102729.41;;;4.16;100.00
42633;BME280;28261;53.304;-6.284;2023-01-28T04:06:27;102726.75;;;4.17;100.00
42633;BME280;28261;53.304;-6.284;2023-01-28T04:09:06;102733.72;;;4.21;100.00
42633;BME280;28261;53.304;-6.284;2023-01-28T04:11:21;102729.31;;;4.25;100.00
42633;BME280;28261;53.304;-6.284;2023-01-28T04:13:27;102737.19;;;4.28;100.00
42633;BME280;28261;53.304;-6.284;2023-01-28T04:15:30;102742.41;;;4.31;100.00
42633;BME280;28261;53.304;-6.284;2023-01-28T04:17:36;102743.28;;;4.33;100.00
42633;BME280;28261;53.304;-6.284;2023-01-28T04:19:41;102737.13;;;4.34;100.00
42633;BME280;28261;53.304;-6.284;2023-01-28T04:21:45;102735.38;;;4.36;100.00
42633;BME280;28261;53.304;-6.284;2023-01-28T04:23:50;102737.09;;;4.39;100.00
42633;BME280;28261;53.304;-6.284;2023-01-28T04:25:54;102739.72;;;4.39;100.00
42633;BME280;28261;53.304;-6.284;2023-01-28T04:27:58;102734.44;;;4.42;100.00
42633;BME280;28261;53.304;-6.284;2023-01-28T04:30:04;102728.31;;;4.43;100.00
42633;BME280;28261;53.304;-6.284;2023-01-28T04:32:13;102718.66;;;4.44;100.00
42633;BME280;28261;53.304;-6.284;2023-01-28T04:34:35;102718.63;;;4.45;100.00
42633;BME280;28261;53.304;-6.284;2023-01-28T04:37:11;102718.63;;;4.47;100.00
42633;BME280;28261;53.304;-6.284;2023-01-28T04:39:19;102721.25;;;4.45;100.00
42633;BME280;28261;53.304;-6.284;2023-01-28T04:41:42;102716.91;;;4.46;100.00
42633;BME280;28261;53.304;-6.284;2023-01-28T04:44:03;102714.25;;;4.44;100.00
42633;BME280;28261;53.304;-6.284;2023-01-28T04:46:27;102714.28;;;4.43;100.00
42633;BME280;28261;53.304;-6.284;2023-01-28T04:48:56;102712.56;;;4.38;100.00
42633;BME280;28261;53.304;-6.284;2023-01-28T04:51:30;102720.47;;;4.37;100.00
42633;BME280;28261;53.304;-6.284;2023-01-28T04:53:55;102726.59;;;4.34;100.00
42633;BME280;28261;53.304;-6.284;2023-01-28T04:56:08;102734.53;;;4.31;100.00
42633;BME280;28261;53.304;-6.284;2023-01-28T04:58:12;102742.41;;;4.30;100.00
42633;BME280;28261;53.304;-6.284;2023-01-28T05:00:19;102745.03;;;4.30;100.00
42633;BME280;28261;53.304;-6.284;2023-01-28T05:02:26;102740.66;;;4.29;100.00
42633;BME280;28261;53.304;-6.284;2023-01-28T05:04:32;102738.03;;;4.30;100.00
42633;BME280;28261;53.304;-6.284;2023-01-28T05:06:38;102733.69;;;4.29;100.00
42633;BME280;28261;53.304;-6.284;2023-01-28T05:08:58;102740.66;;;4.30;100.00
42633;BME280;28261;53.304;-6.284;2023-01-28T05:11:04;102748.53;;;4.30;100.00
42633;BME280;28261;53.304;-6.284;2023-01-28T05:13:07;102743.28;;;4.30;100.00
42633;BME280;28261;53.304;-6.284;2023-01-28T05:15:12;102753.78;;;4.30;100.00
42633;BME280;28261;53.304;-6.284;2023-01-28T05:17:16;102751.16;;;4.29;100.00
42633;BME280;28261;53.304;-6.284;2023-01-28T05:19:21;102745.91;;;4.30;100.00
42633;BME280;28261;53.304;-6.284;2023-01-28T05:21:25;102742.41;;;4.30;100.00
42633;BME280;28261;53.304;-6.284;2023-01-28T05:23:35;102752.91;;;4.31;100.00
42633;BME280;28261;53.304;-6.284;2023-01-28T05:25:41;102756.41;;;4.30;100.00
42633;BME280;28261;53.304;-6.284;2023-01-28T05:27:48;102754.66;;;4.32;100.00
42633;BME280;28261;53.304;-6.284;2023-01-28T05:29:52;102756.41;;;4.33;100.00
42633;BME280;28261;53.304;-6.284;2023-01-28T05:31:56;102759.00;;;4.35;100.00
42633;BME280;28261;53.304;-6.284;2023-01-28T05:34:00;102763.34;;;4.36;100.00
42633;BME280;28261;53.304;-6.284;2023-01-28T05:36:04;102765.09;;;4.37;100.00
42633;BME280;28261;53.304;-6.284;2023-01-28T05:38:08;102770.34;;;4.38;100.00
42633;BME280;28261;53.304;-6.284;2023-01-28T05:40:13;102768.59;;;4.39;100.00
42633;BME280;28261;53.304;-6.284;2023-01-28T05:42:19;102760.72;;;4.39;100.00
42633;BME280;28261;53.304;-6.284;2023-01-28T05:44:28;102762.47;;;4.42;100.00
42633;BME280;28261;53.304;-6.284;2023-01-28T05:46:56;102762.44;;;4.43;100.00
42633;BME280;28261;53.304;-6.284;2023-01-28T05:49:26;102764.16;;;4.44;100.00
42633;BME280;28261;53.304;-6.284;2023-01-28T05:51:46;102757.16;;;4.46;100.00
42633;BME280;28261;53.304;-6.284;2023-01-28T05:53:53;102751.88;;;4.48;100.00
42633;BME280;28261;53.304;-6.284;2023-01-28T05:55:57;102750.13;;;4.48;100.00
42633;BME280;28261;53.304;-6.284;2023-01-28T05:58:03;102747.50;;;4.48;100.00
42633;BME280;28261;53.304;-6.284;2023-01-28T06:00:08;102739.63;;;4.50;100.00
42633;BME280;28261;53.304;-6.284;2023-01-28T06:02:19;102730.00;;;4.49;100.00
42633;BME280;28261;53.304;-6.284;2023-01-28T06:04:25;102741.38;;;4.49;100.00
42633;BME280;28261;53.304;-6.284;2023-01-28T06:06:28;102736.13;;;4.48;100.00
42633;BME280;28261;53.304;-6.284;2023-01-28T06:08:32;102743.16;;;4.47;100.00
42633;BME280;28261;53.304;-6.284;2023-01-28T06:10:36;102742.28;;;4.45;100.00
42633;BME280;28261;53.304;-6.284;2023-01-28T06:12:39;102742.28;;;4.45;100.00
42633;BME280;28261;53.304;-6.284;2023-01-28T06:15:12;102744.91;;;4.44;100.00
42633;BME280;28261;53.304;-6.284;2023-01-28T06:17:32;102746.69;;;4.40;100.00
42633;BME280;28261;53.304;-6.284;2023-01-28T06:19:41;102746.72;;;4.38;100.00
42633;BME280;28261;53.304;-6.284;2023-01-28T06:21:45;102733.59;;;4.37;100.00
42633;BME280;28261;53.304;-6.284;2023-01-28T06:23:48;102739.72;;;4.36;100.00
42633;BME280;28261;53.304;-6.284;2023-01-28T06:25:53;102731.88;;;4.33;100.00
42633;BME280;28261;53.304;-6.284;2023-01-28T06:27:58;102737.13;;;4.33;100.00
42633;BME280;28261;53.304;-6.284;2023-01-28T06:30:02;102732.78;;;4.30;100.00
42633;BME280;28261;53.304;-6.284;2023-01-28T06:32:07;102731.06;;;4.29;100.00
42633;BME280;28261;53.304;-6.284;2023-01-28T06:34:11;102731.91;;;4.30;100.00
42633;BME280;28261;53.304;-6.284;2023-01-28T06:36:14;102742.41;;;4.30;100.00
42633;BME280;28261;53.304;-6.284;2023-01-28T06:38:18;102743.28;;;4.30;100.00
42633;BME280;28261;53.304;-6.284;2023-01-28T06:40:22;102742.41;;;4.31;100.00
42633;BME280;28261;53.304;-6.284;2023-01-28T06:42:26;102738.91;;;4.31;100.00
42633;BME280;28261;53.304;-6.284;2023-01-28T06:44:30;102738.94;;;4.29;100.00
42633;BME280;28261;53.304;-6.284;2023-01-28T06:46:34;102737.19;;;4.27;100.00
42633;BME280;28261;53.304;-6.284;2023-01-28T06:48:39;102732.81;;;4.26;100.00
42633;BME280;28261;53.304;-6.284;2023-01-28T06:50:45;102738.06;;;4.26;100.00
42633;BME280;28261;53.304;-6.284;2023-01-28T06:52:49;102735.47;;;4.24;100.00
42633;BME280;28261;53.304;-6.284;2023-01-28T06:54:53;102741.59;;;4.23;100.00
42633;BME280;28261;53.304;-6.284;2023-01-28T06:56:56;102731.97;;;4.22;100.00
42633;BME280;28261;53.304;-6.284;2023-01-28T06:59:00;102734.59;;;4.22;100.00
42633;BME280;28261;53.304;-6.284;2023-01-28T07:01:04;102734.59;;;4.22;100.00
42633;BME280;28261;53.304;-6.284;2023-01-28T07:03:07;102731.09;;;4.23;100.00
42633;BME280;28261;53.304;-6.284;2023-01-28T07:05:13;102724.97;;;4.22;100.00
42633;BME280;28261;53.304;-6.284;2023-01-28T07:07:16;102725.84;;;4.23;100.00
42633;BME280;28261;53.304;-6.284;2023-01-28T07:09:20;102727.59;;;4.24;100.00
42633;BME280;28261;53.304;-6.284;2023-01-28T07:11:24;102732.84;;;4.24;100.00
42633;BME280;28261;53.304;-6.284;2023-01-28T07:13:27;102727.59;;;4.24;100.00
42633;BME280;28261;53.304;-6.284;2023-01-28T07:15:31;102725.81;;;4.24;100.00
42633;BME280;28261;53.304;-6.284;2023-01-28T07:17:35;102724.94;;;4.27;100.00
42633;BME280;28261;53.304;-6.284;2023-01-28T07:19:38;102723.19;;;4.29;100.00
42633;BME280;28261;53.304;-6.284;2023-01-28T07:21:43;102716.16;;;4.31;100.00
42633;BME280;28261;53.304;-6.284;2023-01-28T07:23:47;102718.72;;;4.34;100.00
42633;BME280;28261;53.304;-6.284;2023-01-28T07:25:51;102716.09;;;4.36;100.00
42633;BME280;28261;53.304;-6.284;2023-01-28T07:27:54;102723.97;;;4.37;100.00
42633;BME280;28261;53.304;-6.284;2023-01-28T07:29:58;102723.06;;;4.38;100.00
42633;BME280;28261;53.304;-6.284;2023-01-28T07:32:02;102723.94;;;4.40;100.00
42633;BME280;28261;53.304;-6.284;2023-01-28T07:34:08;102729.19;;;4.42;100.00
42633;BME280;28261;53.304;-6.284;2023-01-28T07:36:12;102727.41;;;4.43;100.00
42633;BME280;28261;53.304;-6.284;2023-01-28T07:38:17;102727.44;;;4.41;100.00
42633;BME280;28261;53.304;-6.284;2023-01-28T07:40:21;102729.19;;;4.40;100.00
42633;BME280;28261;53.304;-6.284;2023-01-28T07:42:24;102726.56;;;4.42;100.00
42633;BME280;28261;53.304;-6.284;2023-01-28T07:44:28;102727.41;;;4.43;100.00
42633;BME280;28261;53.304;-6.284;2023-01-28T07:46:32;102725.66;;;4.45;100.00
42633;BME280;28261;53.304;-6.284;2023-01-28T07:48:35;102720.38;;;4.46;100.00
42633;BME280;28261;53.304;-6.284;2023-01-28T07:50:39;102721.22;;;4.48;100.00
42633;BME280;28261;53.304;-6.284;2023-01-28T07:52:42;102715.97;;;4.48;100.00
42633;BME280;28261;53.304;-6.284;2023-01-28T07:54:48;102720.38;;;4.48;100.00
42633;BME280;28261;53.304;-6.284;2023-01-28T07:56:52;102713.38;;;4.47;100.00
42633;BME280;28261;53.304;-6.284;2023-01-28T07:58:55;102716.91;;;4.46;100.00
42633;BME280;28261;53.304;-6.284;2023-01-28T08:01:00;102715.16;;;4.43;100.00
42633;BME280;28261;53.304;-6.284;2023-01-28T08:03:11;102715.19;;;4.42;100.00
42633;BME280;28261;53.304;-6.284;2023-01-28T08:05:17;102724.81;;;4.39;100.00
42633;BME280;28261;53.304;-6.284;2023-01-28T08:07:20;102727.47;;;4.36;100.00
42633;BME280;28261;53.304;-6.284;2023-01-28T08:09:24;102727.50;;;4.32;100.00
42633;BME280;28261;53.304;-6.284;2023-01-28T08:11:29;102736.28;;;4.31;100.00
42633;BME280;28261;53.304;-6.284;2023-01-28T08:13:32;102739.78;;;4.31;100.00
42633;BME280;28261;53.304;-6.284;2023-01-28T08:15:37;102739.78;;;4.31;100.00
42633;BME280;28261;53.304;-6.284;2023-01-28T08:17:40;102746.78;;;4.32;100.00
42633;BME280;28261;53.304;-6.284;2023-01-28T08:19:44;102752.88;;;4.34;100.00
42633;BME280;28261;53.304;-6.284;2023-01-28T08:21:48;102754.63;;;4.35;100.00
42633;BME280;28261;53.304;-6.284;2023-01-28T08:23:51;102757.25;;;4.35;100.00
42633;BME280;28261;53.304;-6.284;2023-01-28T08:25:57;102754.59;;;4.37;100.00
42633;BME280;28261;53.304;-6.284;2023-01-28T08:28:03;102765.09;;;4.37;100.00
42633;BME280;28261;53.304;-6.284;2023-01-28T08:30:08;102762.47;;;4.37;100.00
42633;BME280;28261;53.304;-6.284;2023-01-28T08:32:12;102760.72;;;4.36;100.00
42633;BME280;28261;53.304;-6.284;2023-01-28T08:34:16;102758.09;;;4.36;100.00
42633;BME280;28261;53.304;-6.284;2023-01-28T08:36:20;102765.09;;;4.37;100.00
42633;BME280;28261;53.304;-6.284;2023-01-28T08:38:23;102766.00;;;4.37;100.00
42633;BME280;28261;53.304;-6.284;2023-01-28T08:40:28;102774.72;;;4.39;100.00
42633;BME280;28261;53.304;-6.284;2023-01-28T08:42:32;102763.31;;;4.42;100.00
42633;BME280;28261;53.304;-6.284;2023-01-28T08:44:37;102766.81;;;4.46;100.00
42633;BME280;28261;53.304;-6.284;2023-01-28T08:46:41;102771.16;;;4.47;100.00
42633;BME280;28261;53.304;-6.284;2023-01-28T08:48:45;102768.50;;;4.48;100.00
42633;BME280;28261;53.304;-6.284;2023-01-28T08:50:48;102768.50;;;4.50;100.00
42633;BME280;28261;53.304;-6.284;2023-01-28T08:52:57;102775.50;;;4.51;100.00
42633;BME280;28261;53.304;-6.284;2023-01-28T08:55:01;102768.50;;;4.51;100.00
42633;BME280;28261;53.304;-6.284;2023-01-28T08:57:05;102768.47;;;4.53;100.00
42633;BME280;28261;53.304;-6.284;2023-01-28T08:59:09;102770.22;;;4.52;100.00
42633;BME280;28261;53.304;-6.284;2023-01-28T09:01:14;102775.50;;;4.54;100.00
42633;BME280;28261;53.304;-6.284;2023-01-28T09:03:17;102768.44;;;4.57;100.00
42633;BME280;28261;53.304;-6.284;2023-01-28T09:05:21;102769.25;;;4.63;100.00
42633;BME280;28261;53.304;-6.284;2023-01-28T09:07:25;102761.31;;;4.67;100.00
42633;BME280;28261;53.304;-6.284;2023-01-28T09:09:29;102762.16;;;4.72;100.00
42633;BME280;28261;53.304;-6.284;2023-01-28T09:11:33;102768.25;;;4.78;100.00
42633;BME280;28261;53.304;-6.284;2023-01-28T09:13:37;102770.81;;;4.84;100.00
42633;BME280;28261;53.304;-6.284;2023-01-28T09:15:41;102768.16;;;4.88;100.00
42633;BME280;28261;53.304;-6.284;2023-01-28T09:17:47;102765.44;;;4.95;100.00
42633;BME280;28261;53.304;-6.284;2023-01-28T09:19:51;102765.38;;;5.01;100.00
42633;BME280;28261;53.304;-6.284;2023-01-28T09:21:54;102774.06;;;5.07;100.00
42633;BME280;28261;53.304;-6.284;2023-01-28T09:24:00;102778.41;;;5.13;100.00
42633;BME280;28261;53.304;-6.284;2023-01-28T09:26:05;102772.19;;;5.19;100.00
42633;BME280;28261;53.304;-6.284;2023-01-28T09:28:10;102772.13;;;5.25;100.00
42633;BME280;28261;53.304;-6.284;2023-01-28T09:30:14;102778.19;;;5.30;100.00
42633;BME280;28261;53.304;-6.284;2023-01-28T09:32:18;102770.22;;;5.36;100.00
42633;BME280;28261;53.304;-6.284;2023-01-28T09:34:25;102771.03;;;5.43;100.00
42633;BME280;28261;53.304;-6.284;2023-01-28T09:36:30;102775.34;;;5.49;100.00
42633;BME280;28261;53.304;-6.284;2023-01-28T09:38:36;102768.25;;;5.55;100.00
42633;BME280;28261;53.304;-6.284;2023-01-28T09:40:41;102770.78;;;5.62;100.00
42633;BME280;28261;53.304;-6.284;2023-01-28T09:42:57;102761.94;;;5.69;100.00
42633;BME280;28261;53.304;-6.284;2023-01-28T09:45:06;102766.19;;;5.78;100.00
42633;BME280;28261;53.304;-6.284;2023-01-28T09:47:23;102772.22;;;5.84;100.00
42633;BME280;28261;53.304;-6.284;2023-01-28T09:49:36;102770.38;;;5.92;100.00
42633;BME280;28261;53.304;-6.284;2023-01-28T09:51:49;102769.44;;;5.98;100.00
42633;BME280;28261;53.304;-6.284;2023-01-28T09:53:59;102769.34;;;6.04;100.00
42633;BME280;28261;53.304;-6.284;2023-01-28T09:56:12;102757.88;;;6.08;100.00
42633;BME280;28261;53.304;-6.284;2023-01-28T09:58:18;102767.47;;;6.13;100.00
42633;BME280;28261;53.304;-6.284;2023-01-28T10:00:27;102766.56;;;6.15;100.00
42633;BME280;28261;53.304;-6.284;2023-01-28T10:02:49;102768.25;;;6.19;100.00
42633;BME280;28261;53.304;-6.284;2023-01-28T10:05:09;102769.06;;;6.23;100.00
42633;BME280;28261;53.304;-6.284;2023-01-28T10:07:33;102767.31;;;6.23;100.00
42633;BME280;28261;53.304;-6.284;2023-01-28T10:09:47;102767.22;;;6.28;100.00
42633;BME280;28261;53.304;-6.284;2023-01-28T10:14:38;102779.34;;;6.38;100.00
42633;BME280;28261;53.304;-6.284;2023-01-28T10:16:50;102786.31;;;6.41;100.00
42633;BME280;28261;53.304;-6.284;2023-01-28T10:18:58;102794.22;;;6.41;100.00
42633;BME280;28261;53.304;-6.284;2023-01-28T10:21:12;102798.63;;;6.40;100.00
42633;BME280;28261;53.304;-6.284;2023-01-28T10:23:21;102802.16;;;6.39;100.00
42633;BME280;28261;53.304;-6.284;2023-01-28T10:25:32;102802.16;;;6.39;100.00
42633;BME280;28261;53.304;-6.284;2023-01-28T10:27:37;102805.69;;;6.38;100.00
42633;BME280;28261;53.304;-6.284;2023-01-28T10:29:41;102810.97;;;6.38;100.00
42633;BME280;28261;53.304;-6.284;2023-01-28T10:31:51;102806.53;;;6.40;100.00
42633;BME280;28261;53.304;-6.284;2023-01-28T10:33:55;102803.00;;;6.41;100.00
42633;BME280;28261;53.304;-6.284;2023-01-28T10:35:59;102805.66;;;6.41;100.00
42633;BME280;28261;53.304;-6.284;2023-01-28T10:38:08;102811.81;;;6.40;100.00
42633;BME280;28261;53.304;-6.284;2023-01-28T10:40:16;102817.94;;;6.42;100.00
42633;BME280;28261;53.304;-6.284;2023-01-28T10:42:28;102821.41;;;6.44;100.00
42633;BME280;28261;53.304;-6.284;2023-01-28T10:44:36;102823.09;;;6.49;100.00
42633;BME280;28261;53.304;-6.284;2023-01-28T10:46:44;102818.69;;;6.51;100.00
42633;BME280;28261;53.304;-6.284;2023-01-28T10:48:56;102818.66;;;6.52;100.00
42633;BME280;28261;53.304;-6.284;2023-01-28T10:51:02;102820.38;;;6.55;100.00
42633;BME280;28261;53.304;-6.284;2023-01-28T10:53:10;102810.66;;;6.57;100.00
42633;BME280;28261;53.304;-6.284;2023-01-28T10:55:17;102814.16;;;6.57;100.00
42633;BME280;28261;53.304;-6.284;2023-01-28T10:57:25;102807.06;;;6.61;100.00
42633;BME280;28261;53.304;-6.284;2023-01-28T10:59:35;102817.66;;;6.58;100.00
42633;BME280;28261;53.304;-6.284;2023-01-28T11:01:46;102807.09;;;6.59;100.00
42633;BME280;28261;53.304;-6.284;2023-01-28T11:03:55;102810.59;;;6.62;100.00
42633;BME280;28261;53.304;-6.284;2023-01-28T11:06:05;102807.00;;;6.64;100.00